This is the latest recevied weather packets stored in our database for station/object OE-1066. If no packets are shown the sender has not sent any weather packets the latest 10 day(s).
| Time | Temp. | Humidity | Pressure | Rain* | Wind** | Luminosity | Snow |
|---|---|---|---|---|---|---|---|
| 1788329470 | 16.11° C | 73% | 1021.4 hPa | - | - | - | - |
| 1788327670 | 15.56° C | 76% | 1021.5 hPa | - | - | - | - |
| 1788325870 | 15.56° C | 76% | 1020.5 hPa | - | - | - | - |
| 1788282670 | 24.44° C | 43% | 1017.9 hPa | - | - | - | - |
| 1788270070 | 25° C | 40% | 1018.9 hPa | - | - | - | - |
| 1788268270 | 24.44° C | 41% | 1019 hPa | - | - | - | - |
| 1788266470 | 24.44° C | 42% | 1020 hPa | - | - | - | - |
| 1788264669 | 24.44° C | 43% | 1020 hPa | - | - | - | - |
| 1788262870 | 23.89° C | 44% | 1020.1 hPa | - | - | - | - |
| 1788261070 | 23.33° C | 45% | 1020.2 hPa | - | - | - | - |
| 1788259270 | 22.78° C | 47% | 1020.3 hPa | - | - | - | - |
| 1788257470 | 22.78° C | 50% | 1020.3 hPa | - | - | - | - |
| 1788255670 | 22.22° C | 52% | 1020.4 hPa | - | - | - | - |
| 1788253869 | 21.67° C | 54% | 1020.5 hPa | - | - | - | - |
| 1788252070 | 21.11° C | 56% | 1020.6 hPa | - | - | - | - |
| 1788180070 | 25° C | 53% | 1014.7 hPa | - | - | - | - |
| 1788178270 | 25° C | 51% | 1015.7 hPa | - | - | - | - |
| 1788176470 | 25° C | 52% | 1015.7 hPa | - | - | - | - |
| 1788174670 | 24.44° C | 53% | 1015.8 hPa | - | - | - | - |
| 1788172870 | 24.44° C | 52% | 1015.8 hPa | - | - | - | - |
| 1788171070 | 24.44° C | 51% | 1015.8 hPa | - | - | - | - |
| 1788169270 | 23.89° C | 55% | 1015.9 hPa | - | - | - | - |
| 1788167469 | 22.78° C | 66% | 1016.1 hPa | - | - | - | - |
| 1788165670 | 22.22° C | 71% | 1016.2 hPa | - | - | - | - |
| 1788163870 | 20.56° C | 77% | 1016.5 hPa | - | - | - | - |
* Rain since midnight (hover to see other rain measurements)
** Current wind speed in m/s (hover to see current wind gust speed)